Time;durP1;ratioP1;P1;durP2;ratioP2;P2;SDS_P1;SDS_P2;PMS_P1;PMS_P2;Temp;Humidity;BMP_temperature;BMP_pressure;BME280_temperature;BME280_humidity;BME280_pressure;Samples;Min_cycle;Max_cycle;Signal;HPM_P1;HPM_P2
2021/06/04 00:00:29;;;;;;;8.55;6.82;;;23.00;61.10;;;;;;5037009;28;20184;-76
2021/06/04 00:02:57;;;;;;;7.93;6.82;;;23.00;61.10;;;;;;5028829;28;20029;-75
2021/06/04 00:05:27;;;;;;;7.80;6.30;;;23.10;61.00;;;;;;5022460;28;20108;-76
2021/06/04 00:07:53;;;;;;;7.50;6.80;;;23.10;61.00;;;;;;5021650;28;20067;-77
2021/06/04 00:10:25;;;;;;;7.57;6.60;;;23.10;61.00;;;;;;5045518;28;20033;-76
2021/06/04 00:12:51;;;;;;;8.80;6.35;;;23.10;60.90;;;;;;5051978;28;20080;-77
2021/06/04 00:15:22;;;;;;;8.63;6.53;;;23.10;60.90;;;;;;5055474;28;20087;-76
2021/06/04 00:17:47;;;;;;;7.38;6.63;;;23.10;60.90;;;;;;5053863;28;20035;-75
2021/06/04 00:20:23;;;;;;;7.68;6.50;;;23.20;61.00;;;;;;5042404;28;20033;-76
2021/06/04 00:22:49;;;;;;;7.97;6.45;;;23.20;61.00;;;;;;5036634;28;20112;-77
2021/06/04 00:25:14;;;;;;;9.80;6.57;;;23.20;60.80;;;;;;5034039;28;20052;-76
2021/06/04 00:27:40;;;;;;;10.23;7.20;;;23.20;60.50;;;;;;5020478;28;20037;-76
2021/06/04 00:30:08;;;;;;;7.75;6.72;;;23.30;60.40;;;;;;5028580;28;20033;-77
2021/06/04 00:32:33;;;;;;;8.90;7.18;;;23.20;60.40;;;;;;5014401;28;20119;-77
2021/06/04 00:34:59;;;;;;;8.55;6.63;;;23.10;60.60;;;;;;5047409;28;20080;-76
2021/06/04 00:37:24;;;;;;;7.85;7.05;;;23.10;60.80;;;;;;5049873;28;20048;-77
2021/06/04 00:39:50;;;;;;;6.88;6.28;;;23.00;61.00;;;;;;5035121;28;20067;-76
2021/06/04 00:42:18;;;;;;;9.48;6.78;;;23.00;61.10;;;;;;5057374;28;20067;-77
2021/06/04 00:44:45;;;;;;;8.18;6.05;;;23.00;61.30;;;;;;5038135;28;20117;-77
2021/06/04 00:47:11;;;;;;;7.28;6.55;;;22.90;61.30;;;;;;5027722;28;20103;-76
2021/06/04 00:49:37;;;;;;;7.90;7.07;;;22.90;61.30;;;;;;5055379;28;20037;-76
2021/06/04 00:52:13;;;;;;;9.18;7.65;;;23.00;61.30;;;;;;5054783;28;20071;-76
2021/06/04 00:54:40;;;;;;;6.95;6.35;;;22.90;61.30;;;;;;5054338;28;20025;-76
2021/06/04 00:57:08;;;;;;;7.15;6.45;;;22.90;61.40;;;;;;5052437;28;20044;-76
2021/06/04 00:59:38;;;;;;;7.53;6.90;;;22.90;61.50;;;;;;5054780;28;20045;-77
2021/06/04 01:02:06;;;;;;;6.97;6.28;;;22.90;61.40;;;;;;5056705;28;20044;-76
2021/06/04 01:04:32;;;;;;;7.10;6.40;;;22.90;61.50;;;;;;5032530;28;20067;-76
2021/06/04 01:07:16;;;;;;;10.13;7.20;;;22.90;61.60;;;;;;5021962;28;20029;-76
2021/06/04 01:10:12;;;;;;;7.07;6.32;;;22.90;61.40;;;;;;5056785;28;20091;-76
2021/06/04 01:12:54;;;;;;;7.50;6.68;;;22.90;61.30;;;;;;5052919;28;20052;-76
2021/06/04 01:15:54;;;;;;;7.82;6.60;;;22.90;61.40;;;;;;5037470;28;20546;-77
2021/06/04 01:18:31;;;;;;;9.98;7.32;;;22.80;61.50;;;;;;5027576;28;20033;-77
2021/06/04 01:21:05;;;;;;;7.68;6.97;;;22.70;61.50;;;;;;5056081;28;20021;-77
2021/06/04 01:24:00;;;;;;;6.97;6.27;;;22.70;61.80;;;;;;5055179;28;20111;-76
2021/06/04 01:26:32;;;;;;;8.75;6.53;;;22.70;61.90;;;;;;5051242;28;20095;-77
2021/06/04 01:29:19;;;;;;;7.70;6.88;;;22.70;61.90;;;;;;5056358;28;20028;-77
2021/06/04 01:31:52;;;;;;;9.18;7.32;;;22.60;62.00;;;;;;5031275;28;20037;-77
2021/06/04 01:34:27;;;;;;;9.00;6.60;;;22.60;62.10;;;;;;5055181;28;20181;-77
2021/06/04 01:36:59;;;;;;;7.85;7.05;;;22.50;62.90;;;;;;5059527;28;20029;-77
2021/06/04 01:39:31;;;;;;;7.88;7.07;;;22.50;62.40;;;;;;5067366;28;20054;-77
2021/06/04 01:42:00;;;;;;;10.55;7.28;;;22.50;62.40;;;;;;5044194;28;20029;-78
2021/06/04 01:44:43;;;;;;;7.47;6.68;;;22.50;62.50;;;;;;5058212;28;20036;-78
2021/06/04 01:47:13;;;;;;;9.05;6.97;;;22.50;62.60;;;;;;5058992;28;20032;-77
2021/06/04 01:49:41;;;;;;;9.50;6.80;;;22.50;62.60;;;;;;5071523;28;20040;-78
2021/06/04 01:52:20;;;;;;;9.70;7.20;;;22.50;62.80;;;;;;5047793;28;20143;-76
2021/06/04 01:55:11;;;;;;;10.07;7.57;;;22.40;62.80;;;;;;5054735;28;20025;-76
2021/06/04 01:57:45;;;;;;;9.85;6.70;;;22.40;63.00;;;;;;5053702;28;20416;-75
2021/06/04 02:00:13;;;;;;;7.47;6.85;;;22.40;63.00;;;;;;5053084;28;20131;-76
2021/06/04 02:02:39;;;;;;;7.85;7.10;;;22.30;63.10;;;;;;5047472;28;20086;-76
2021/06/04 02:05:08;;;;;;;8.88;7.18;;;22.30;63.30;;;;;;5049424;28;20029;-76
2021/06/04 02:07:34;;;;;;;9.63;6.88;;;22.20;63.40;;;;;;5048657;28;20036;-76
2021/06/04 02:10:02;;;;;;;9.77;7.80;;;22.20;63.60;;;;;;5055323;28;20063;-76
2021/06/04 02:12:29;;;;;;;9.02;7.63;;;22.00;64.00;;;;;;5054080;28;20051;-77
2021/06/04 02:15:01;;;;;;;8.00;7.20;;;21.80;64.50;;;;;;5037275;28;20063;-77
2021/06/04 02:17:52;;;;;;;9.15;6.63;;;21.80;65.50;;;;;;5055509;28;20048;-77
2021/06/04 02:20:38;;;;;;;8.13;7.30;;;21.80;64.80;;;;;;5055615;28;20563;-77
2021/06/04 02:23:24;;;;;;;7.65;6.88;;;21.90;64.60;;;;;;5023367;28;20104;-77
2021/06/04 02:26:18;;;;;;;8.05;7.15;;;21.90;64.60;;;;;;5035351;28;20123;-77
2021/06/04 02:28:51;;;;;;;7.10;6.43;;;21.90;64.60;;;;;;5030216;28;20033;-77
2021/06/04 02:31:34;;;;;;;9.55;6.85;;;21.90;64.60;;;;;;5036526;28;20032;-77
2021/06/04 02:34:20;;;;;;;8.25;7.10;;;21.90;64.60;;;;;;5055746;28;20025;-77
2021/06/04 02:36:56;;;;;;;7.75;6.95;;;21.90;64.70;;;;;;5055792;28;20159;-77
2021/06/04 02:39:33;;;;;;;9.13;7.65;;;21.90;64.70;;;;;;5036464;28;20111;-77
2021/06/04 02:42:11;;;;;;;8.60;7.65;;;21.90;64.80;;;;;;5053416;28;20033;-77
2021/06/04 02:44:51;;;;;;;7.80;7.00;;;21.90;64.90;;;;;;5041336;28;20045;-76
2021/06/04 02:47:22;;;;;;;8.25;6.88;;;21.90;64.80;;;;;;5054643;28;20524;-75
2021/06/04 02:49:48;;;;;;;8.90;7.30;;;21.90;65.70;;;;;;5030601;28;20083;-76
2021/06/04 02:52:26;;;;;;;9.88;7.07;;;21.90;65.20;;;;;;5053149;28;20021;-77
2021/06/04 02:54:52;;;;;;;9.18;7.32;;;21.80;65.30;;;;;;5019493;28;20051;-77
2021/06/04 02:57:22;;;;;;;12.63;7.53;;;21.80;65.50;;;;;;5035790;28;20108;-75
2021/06/04 02:59:48;;;;;;;8.55;7.22;;;21.80;65.60;;;;;;5036650;28;20043;-76
2021/06/04 03:02:26;;;;;;;11.10;7.45;;;21.80;65.50;;;;;;5053511;28;20104;-76
2021/06/04 03:04:57;;;;;;;7.68;6.88;;;21.80;65.70;;;;;;5046852;28;20033;-76
2021/06/04 03:07:34;;;;;;;8.43;7.50;;;21.80;65.70;;;;;;5049395;28;20033;-77
2021/06/04 03:10:24;;;;;;;8.00;7.00;;;21.80;65.70;;;;;;5037031;28;20025;-77
2021/06/04 03:12:51;;;;;;;8.18;7.38;;;21.70;65.90;;;;;;5040340;28;20484;-77
2021/06/04 03:15:47;;;;;;;8.15;7.35;;;21.60;66.20;;;;;;5053028;28;20693;-77
2021/06/04 03:18:16;;;;;;;9.10;7.80;;;21.50;66.40;;;;;;5052794;28;20033;-76
2021/06/04 03:20:44;;;;;;;9.98;7.50;;;21.40;66.80;;;;;;5052278;28;20035;-76
2021/06/04 03:23:14;;;;;;;8.55;6.80;;;21.40;67.10;;;;;;5032152;28;20086;-77
2021/06/04 03:25:43;;;;;;;7.85;7.10;;;21.30;67.10;;;;;;5026833;28;20565;-77
2021/06/04 03:28:13;;;;;;;7.95;7.22;;;21.30;67.20;;;;;;5039864;28;20033;-77
2021/06/04 03:30:42;;;;;;;7.85;7.15;;;21.30;67.30;;;;;;5055977;28;20056;-77
2021/06/04 03:33:11;;;;;;;8.75;7.20;;;21.30;67.20;;;;;;5024297;28;20388;-77
2021/06/04 03:35:37;;;;;;;10.57;7.05;;;21.40;67.10;;;;;;5054339;28;20520;-77
2021/06/04 03:38:03;;;;;;;9.40;6.85;;;21.50;66.70;;;;;;4989355;28;20029;-75
2021/06/04 03:40:31;;;;;;;7.97;7.05;;;21.50;66.30;;;;;;5055196;28;20190;-76
2021/06/04 03:43:00;;;;;;;7.90;7.05;;;21.60;66.00;;;;;;5063802;28;20096;-76
2021/06/04 03:45:30;;;;;;;9.13;7.43;;;21.70;65.80;;;;;;5040565;28;20544;-77
2021/06/04 03:47:56;;;;;;;9.65;7.55;;;21.80;65.70;;;;;;5053038;28;20046;-76
2021/06/04 03:50:22;;;;;;;8.05;7.15;;;21.90;65.60;;;;;;5046929;28;20037;-77
2021/06/04 03:52:48;;;;;;;7.53;6.57;;;21.90;65.60;;;;;;5052834;28;20033;-76
2021/06/04 03:55:16;;;;;;;7.15;6.45;;;21.80;65.50;;;;;;5047747;28;20515;-76
2021/06/04 03:57:42;;;;;;;8.38;7.43;;;21.90;65.60;;;;;;5052203;28;20550;-77
2021/06/04 04:00:14;;;;;;;9.40;6.82;;;21.90;65.80;;;;;;5051388;28;20063;-77
2021/06/04 04:02:39;;;;;;;8.20;7.00;;;21.90;65.60;;;;;;5050729;28;20094;-76
2021/06/04 04:05:06;;;;;;;10.32;7.78;;;21.90;65.50;;;;;;5051565;28;20402;-76
2021/06/04 04:07:32;;;;;;;10.88;7.70;;;21.80;65.50;;;;;;5051552;28;20025;-77
2021/06/04 04:09:58;;;;;;;9.75;7.85;;;21.70;65.60;;;;;;5012734;28;20587;-77
2021/06/04 04:12:26;;;;;;;10.55;8.25;;;21.70;65.90;;;;;;5021007;28;20029;-77
2021/06/04 04:14:52;;;;;;;8.93;7.47;;;21.70;65.90;;;;;;5055615;28;20497;-77
2021/06/04 04:17:18;;;;;;;9.35;7.40;;;21.60;66.60;;;;;;5055642;28;20114;-77
2021/06/04 04:19:43;;;;;;;7.40;6.70;;;21.60;66.90;;;;;;5046793;28;20071;-76
2021/06/04 04:22:09;;;;;;;9.50;7.40;;;21.60;67.30;;;;;;5021247;28;20047;-77
2021/06/04 04:24:36;;;;;;;9.98;7.20;;;21.60;67.50;;;;;;5005958;28;20044;-77
2021/06/04 04:27:03;;;;;;;11.63;7.00;;;21.70;67.40;;;;;;5027451;28;20612;-77
2021/06/04 04:29:29;;;;;;;9.00;6.90;;;21.80;67.00;;;;;;5034737;28;20041;-78
2021/06/04 04:32:00;;;;;;;8.13;6.88;;;21.80;67.30;;;;;;5044245;28;20037;-76
2021/06/04 04:34:28;;;;;;;6.75;6.15;;;21.90;66.40;;;;;;5055845;28;20254;-77
2021/06/04 04:36:59;;;;;;;11.98;7.25;;;21.90;66.10;;;;;;5044103;28;20176;-77
2021/06/04 04:39:28;;;;;;;8.43;7.63;;;22.00;66.20;;;;;;5038190;28;20036;-77
2021/06/04 04:41:54;;;;;;;9.45;7.20;;;22.00;66.50;;;;;;5054283;28;20037;-76
2021/06/04 04:44:24;;;;;;;10.23;7.55;;;22.00;66.50;;;;;;5056061;28;20032;-77
2021/06/04 04:46:50;;;;;;;9.45;7.28;;;22.10;66.30;;;;;;5061628;28;20037;-78
2021/06/04 04:49:16;;;;;;;9.38;7.10;;;22.10;66.10;;;;;;5032861;28;20115;-77
2021/06/04 04:51:42;;;;;;;7.95;6.78;;;22.20;66.10;;;;;;5055657;28;20025;-78
2021/06/04 04:54:08;;;;;;;11.18;7.30;;;22.20;66.00;;;;;;5037260;28;20056;-78
2021/06/04 04:56:35;;;;;;;11.13;7.68;;;22.10;65.90;;;;;;5022705;28;20028;-77
2021/06/04 04:59:01;;;;;;;8.48;6.95;;;22.00;66.10;;;;;;5056139;28;20033;-77
2021/06/04 05:01:27;;;;;;;9.25;7.65;;;22.10;66.30;;;;;;5054218;28;20051;-77
2021/06/04 05:03:53;;;;;;;13.85;7.65;;;22.00;66.30;;;;;;5055566;28;20111;-76
2021/06/04 05:06:18;;;;;;;11.10;8.00;;;22.00;66.60;;;;;;5021675;28;20087;-77
2021/06/04 05:08:46;;;;;;;8.45;7.55;;;21.90;66.60;;;;;;5037705;28;20090;-77
2021/06/04 05:11:13;;;;;;;9.05;7.53;;;21.80;66.80;;;;;;5044674;28;20503;-77
2021/06/04 05:13:38;;;;;;;41.20;32.03;;;21.90;67.00;;;;;;5055706;28;20064;-77
2021/06/04 05:16:05;;;;;;;97.00;64.85;;;21.80;67.20;;;;;;5038411;28;20032;-77
2021/06/04 05:18:32;;;;;;;35.17;23.75;;;21.90;67.40;;;;;;5038041;28;20569;-77
2021/06/04 05:20:58;;;;;;;16.30;12.50;;;21.90;68.20;;;;;;5034417;28;20044;-77
2021/06/04 05:23:24;;;;;;;18.40;10.00;;;21.90;69.30;;;;;;5054844;28;20485;-78
2021/06/04 05:25:51;;;;;;;9.38;8.40;;;21.90;69.10;;;;;;5015388;28;20048;-77
2021/06/04 05:28:19;;;;;;;10.57;7.28;;;21.80;69.70;;;;;;5054270;28;20032;-78
2021/06/04 05:30:48;;;;;;;9.23;8.20;;;21.60;70.30;;;;;;5058601;28;20036;-77
2021/06/04 05:33:23;;;;;;;9.65;8.40;;;21.60;70.40;;;;;;5067131;28;20029;-77
2021/06/04 05:35:49;;;;;;;9.02;7.80;;;21.70;70.80;;;;;;5061758;28;20020;-77
2021/06/04 05:38:15;;;;;;;9.70;7.78;;;21.70;70.80;;;;;;5040942;28;20033;-79
2021/06/04 05:40:45;;;;;;;42.00;30.52;;;21.60;70.80;;;;;;5054804;28;20451;-77
2021/06/04 05:43:14;;;;;;;12.57;11.27;;;21.60;70.90;;;;;;5055074;28;20488;-77
2021/06/04 05:45:42;;;;;;;12.82;9.40;;;21.50;71.50;;;;;;5046231;28;20036;-77
2021/06/04 05:48:09;;;;;;;10.73;9.65;;;21.60;71.30;;;;;;5017795;28;20392;-78
2021/06/04 05:50:40;;;;;;;15.43;9.40;;;21.60;71.40;;;;;;5044521;28;20499;-78
2021/06/04 05:53:09;;;;;;;10.10;8.38;;;21.70;71.40;;;;;;5032887;28;20481;-78
2021/06/04 05:55:36;;;;;;;9.65;8.40;;;21.80;71.00;;;;;;5021399;28;20619;-78
2021/06/04 05:58:04;;;;;;;10.77;8.40;;;21.80;71.40;;;;;;5049129;28;20033;-78
2021/06/04 06:00:36;;;;;;;11.15;8.07;;;21.90;71.10;;;;;;5022358;28;20106;-77
2021/06/04 06:03:04;;;;;;;11.27;8.32;;;21.90;71.50;;;;;;5025899;28;20056;-75
2021/06/04 06:05:30;;;;;;;13.82;8.90;;;21.80;72.00;;;;;;5058044;28;20037;-77
2021/06/04 06:07:56;;;;;;;12.68;8.55;;;21.80;70.80;;;;;;5055438;28;20032;-78
2021/06/04 06:10:22;;;;;;;12.23;8.75;;;21.80;71.10;;;;;;5049106;28;20497;-78
2021/06/04 06:12:53;;;;;;;14.15;8.38;;;21.90;71.30;;;;;;5023321;28;20045;-78
2021/06/04 06:15:21;;;;;;;13.27;8.38;;;22.00;71.40;;;;;;5028736;28;20210;-76
2021/06/04 06:17:47;;;;;;;17.13;10.98;;;22.20;71.30;;;;;;5029393;28;20060;-77
2021/06/04 06:20:15;;;;;;;16.70;12.63;;;22.20;70.80;;;;;;5031807;28;20033;-79
2021/06/04 06:22:42;;;;;;;13.35;10.32;;;22.30;70.90;;;;;;5012291;28;20394;-77
2021/06/04 06:25:11;;;;;;;11.52;9.10;;;22.40;71.10;;;;;;5015927;28;20040;-77
2021/06/04 06:27:37;;;;;;;14.45;9.32;;;22.50;71.30;;;;;;5022950;28;20120;-77
2021/06/04 06:30:06;;;;;;;14.77;10.07;;;22.60;71.50;;;;;;5026601;28;20500;-78
2021/06/04 06:32:32;;;;;;;13.15;9.15;;;22.60;71.10;;;;;;5031472;28;20040;-76
2021/06/04 06:34:57;;;;;;;10.23;9.18;;;22.60;71.40;;;;;;5028416;28;20033;-78
2021/06/04 06:37:23;;;;;;;11.10;9.60;;;22.60;71.80;;;;;;5026226;28;20029;-76
2021/06/04 06:39:49;;;;;;;11.43;10.30;;;22.30;71.80;;;;;;5024109;28;20056;-77
2021/06/04 06:42:14;;;;;;;14.45;9.32;;;22.30;71.90;;;;;;5008315;28;20026;-78
2021/06/04 06:44:40;;;;;;;12.45;9.45;;;22.40;72.30;;;;;;4997350;28;20045;-76
2021/06/04 06:47:06;;;;;;;22.08;11.10;;;22.40;72.10;;;;;;5026905;28;20034;-76
2021/06/04 06:49:32;;;;;;;13.45;11.60;;;22.20;72.00;;;;;;5010960;28;20055;-76
2021/06/04 06:51:57;;;;;;;18.60;13.98;;;22.20;72.10;;;;;;5027899;28;20095;-76
2021/06/04 06:54:27;;;;;;;17.35;9.80;;;22.50;72.00;;;;;;5051230;28;20372;-75
2021/06/04 06:56:55;;;;;;;21.77;9.55;;;22.60;71.70;;;;;;5021957;28;20029;-76
2021/06/04 06:59:24;;;;;;;21.60;9.73;;;22.60;71.10;;;;;;5044279;28;20033;-76
2021/06/04 07:01:51;;;;;;;23.13;12.05;;;22.70;71.30;;;;;;5027108;28;20029;-76
2021/06/04 07:04:19;;;;;;;16.55;11.02;;;22.80;70.90;;;;;;5008342;28;20583;-77
2021/06/04 07:06:45;;;;;;;22.45;10.25;;;23.00;69.90;;;;;;5005326;28;20037;-77
2021/06/04 07:09:13;;;;;;;26.80;10.82;;;23.10;69.30;;;;;;5046640;28;20059;-77
2021/06/04 07:11:44;;;;;;;18.75;10.32;;;23.20;69.30;;;;;;5016598;28;20033;-77
2021/06/04 07:14:11;;;;;;;20.75;9.80;;;23.40;68.80;;;;;;5035796;28;20085;-76
2021/06/04 07:16:37;;;;;;;15.07;9.18;;;23.40;67.90;;;;;;5029638;28;20370;-78
2021/06/04 07:19:05;;;;;;;9.77;8.77;;;23.50;67.40;;;;;;5041701;28;20553;-77
2021/06/04 07:21:31;;;;;;;10.80;8.88;;;23.60;67.30;;;;;;5031611;28;20123;-77
2021/06/04 07:23:57;;;;;;;10.07;9.07;;;23.70;67.40;;;;;;5030978;28;20033;-78
2021/06/04 07:26:24;;;;;;;12.70;9.93;;;23.60;67.80;;;;;;5058650;28;20025;-78
2021/06/04 07:28:51;;;;;;;13.48;10.13;;;23.70;67.20;;;;;;5048538;28;20496;-76
2021/06/04 07:31:19;;;;;;;14.30;10.15;;;23.60;68.30;;;;;;5026215;28;20033;-76
2021/06/04 07:33:49;;;;;;;24.25;11.55;;;23.70;68.00;;;;;;5029237;28;20507;-77
2021/06/04 07:36:25;;;;;;;15.75;9.55;;;23.70;67.50;;;;;;5030290;28;20044;-77
2021/06/04 07:38:50;;;;;;;11.80;9.30;;;23.80;67.70;;;;;;5031490;28;20063;-76
2021/06/04 07:41:16;;;;;;;18.38;9.95;;;23.80;67.30;;;;;;5019161;28;20033;-78
2021/06/04 07:43:44;;;;;;;10.45;9.35;;;23.70;67.50;;;;;;5032844;28;20408;-77
2021/06/04 07:46:11;;;;;;;11.80;9.77;;;23.60;67.70;;;;;;5025707;28;20105;-77
2021/06/04 07:48:38;;;;;;;14.43;10.43;;;23.60;68.10;;;;;;5037815;28;20033;-77
2021/06/04 07:51:07;;;;;;;11.60;9.65;;;23.60;68.30;;;;;;5038663;28;20063;-77
2021/06/04 07:53:33;;;;;;;13.32;10.07;;;23.50;69.00;;;;;;5054913;28;20029;-77
2021/06/04 07:56:00;;;;;;;26.42;11.73;;;23.60;68.80;;;;;;5031899;28;20052;-78
2021/06/04 07:58:26;;;;;;;21.02;12.70;;;23.70;68.90;;;;;;5045432;28;20032;-76
2021/06/04 08:00:53;;;;;;;18.65;12.45;;;23.70;68.70;;;;;;5025400;28;20094;-76
2021/06/04 08:03:22;;;;;;;11.65;10.38;;;23.80;68.80;;;;;;5039163;28;20074;-77
2021/06/04 08:05:47;;;;;;;14.90;11.48;;;23.70;69.50;;;;;;5026237;28;20025;-78
2021/06/04 08:08:14;;;;;;;15.52;10.48;;;23.80;69.50;;;;;;5023440;28;20033;-77
2021/06/04 08:10:40;;;;;;;15.88;10.68;;;23.80;69.50;;;;;;5027450;28;20111;-76
2021/06/04 08:13:07;;;;;;;15.27;11.82;;;23.80;70.00;;;;;;5025871;28;20029;-77
2021/06/04 08:15:37;;;;;;;12.35;10.98;;;23.80;70.50;;;;;;5052252;28;20409;-78
2021/06/04 08:18:03;;;;;;;9.73;8.73;;;23.80;70.80;;;;;;5040595;28;20041;-78
2021/06/04 08:20:33;;;;;;;11.68;10.48;;;24.00;70.80;;;;;;5039446;28;20033;-78
2021/06/04 08:23:13;;;;;;;11.77;9.50;;;23.90;71.00;;;;;;5026498;28;20029;-79
2021/06/04 08:25:46;;;;;;;12.07;10.93;;;24.20;70.80;;;;;;5046601;28;20029;-78
2021/06/04 08:28:12;;;;;;;10.32;9.30;;;24.20;71.20;;;;;;5041721;28;20029;-76
2021/06/04 08:30:39;;;;;;;14.00;9.60;;;24.30;70.60;;;;;;5053329;28;20633;-76
2021/06/04 08:33:05;;;;;;;11.02;9.85;;;24.60;69.90;;;;;;5055411;28;20082;-76
2021/06/04 08:35:31;;;;;;;11.10;10.00;;;24.90;69.60;;;;;;5002908;28;20091;-78
2021/06/04 08:37:58;;;;;;;11.98;10.40;;;25.00;69.20;;;;;;5050501;28;20064;-77
2021/06/04 08:40:29;;;;;;;10.90;9.80;;;25.00;69.80;;;;;;5021087;28;20083;-78
2021/06/04 08:43:07;;;;;;;20.50;10.98;;;25.00;69.60;;;;;;5042448;28;20040;-77
2021/06/04 08:45:34;;;;;;;17.55;11.15;;;24.90;70.20;;;;;;5056500;28;20017;-76
2021/06/04 08:48:25;;;;;;;16.30;9.98;;;25.00;69.20;;;;;;5042783;28;20117;-77
2021/06/04 08:51:00;;;;;;;18.27;10.10;;;25.00;69.50;;;;;;5027528;28;20401;-78
2021/06/04 08:53:32;;;;;;;17.50;9.38;;;25.10;69.30;;;;;;5037484;28;20017;-78
2021/06/04 08:56:13;;;;;;;11.25;8.65;;;25.30;69.10;;;;;;5037395;28;20087;-78
2021/06/04 08:58:59;;;;;;;18.17;9.43;;;25.40;69.90;;;;;;5041198;28;20617;-78
2021/06/04 09:01:48;;;;;;;14.30;8.65;;;25.20;68.90;;;;;;5029400;28;20060;-78
2021/06/04 09:04:38;;;;;;;16.20;9.55;;;25.30;68.60;;;;;;5046812;28;20163;-79
2021/06/04 09:07:19;;;;;;;9.90;8.85;;;25.30;68.40;;;;;;5051776;28;20051;-79
2021/06/04 09:09:55;;;;;;;9.88;8.05;;;25.30;68.80;;;;;;5035174;28;20037;-78
2021/06/04 09:12:41;;;;;;;8.20;7.50;;;25.40;68.90;;;;;;5042837;28;20116;-78
2021/06/04 09:15:09;;;;;;;11.77;8.55;;;25.60;68.50;;;;;;5070664;28;20066;-80
2021/06/04 09:18:01;;;;;;;9.77;7.70;;;25.80;67.70;;;;;;5056978;28;20509;-78
2021/06/04 09:20:30;;;;;;;9.00;7.85;;;25.70;67.20;;;;;;5029989;28;20052;-78
2021/06/04 09:23:01;;;;;;;12.30;8.15;;;25.80;67.10;;;;;;5035858;28;20040;-78
2021/06/04 09:25:30;;;;;;;7.70;6.90;;;26.00;66.50;;;;;;5052040;28;20231;-79
2021/06/04 09:28:17;;;;;;;8.43;7.47;;;26.20;66.90;;;;;;5022883;28;20043;-79
2021/06/04 09:30:56;;;;;;;11.25;7.20;;;26.30;66.50;;;;;;5036774;28;20064;-79
2021/06/04 09:33:27;;;;;;;9.10;7.03;;;26.70;65.70;;;;;;5047200;28;20037;-80
2021/06/04 09:36:08;;;;;;;8.20;6.82;;;26.90;64.80;;;;;;5045219;28;20456;-80
2021/06/04 09:38:45;;;;;;;13.85;7.63;;;27.10;64.00;;;;;;5042857;28;20029;-80
2021/06/04 09:41:39;;;;;;;15.43;6.38;;;26.80;65.70;;;;;;5047327;28;20025;-78
2021/06/04 09:44:08;;;;;;;6.20;5.45;;;26.60;65.20;;;;;;5043938;28;20033;-77
2021/06/04 09:47:09;;;;;;;9.13;5.00;;;26.30;64.80;;;;;;5038817;28;20382;-78
2021/06/04 09:49:58;;;;;;;6.53;5.38;;;25.90;65.00;;;;;;5055316;28;20033;-78
2021/06/04 09:52:29;;;;;;;6.50;5.55;;;25.80;65.70;;;;;;5049767;28;20029;-79
2021/06/04 09:55:21;;;;;;;10.00;5.68;;;25.60;65.80;;;;;;5043743;28;20111;-78
2021/06/04 09:58:13;;;;;;;8.38;6.18;;;25.60;65.20;;;;;;5051052;28;20037;-79
2021/06/04 10:00:43;;;;;;;12.90;6.35;;;25.50;65.30;;;;;;5029078;28;20032;-79
2021/06/04 10:03:17;;;;;;;16.77;7.20;;;25.30;66.70;;;;;;5060792;28;20594;-78
2021/06/04 10:05:44;;;;;;;9.90;5.88;;;25.70;65.70;;;;;;5053172;28;20080;-77
2021/06/04 10:08:29;;;;;;;5.63;5.05;;;25.80;65.70;;;;;;5046669;28;20024;-78
2021/06/04 10:11:27;;;;;;;11.57;5.75;;;26.00;65.70;;;;;;5040178;28;20405;-78
2021/06/04 10:14:16;;;;;;;5.45;4.90;;;26.20;65.70;;;;;;5031293;28;20054;-79
2021/06/04 10:19:31;;;;;;;7.13;5.03;;;25.70;65.80;;;;;;5064360;28;20080;-78
2021/06/04 10:22:29;;;;;;;6.43;5.78;;;25.60;65.40;;;;;;5063884;28;20025;-78
2021/06/04 10:25:17;;;;;;;8.48;5.40;;;25.30;65.60;;;;;;5058432;28;20025;-79
2021/06/04 10:27:46;;;;;;;5.80;5.30;;;25.30;66.30;;;;;;5060946;28;20107;-79
2021/06/04 10:30:16;;;;;;;5.43;4.80;;;25.40;66.90;;;;;;5025028;28;20106;-80
2021/06/04 10:32:53;;;;;;;6.75;4.80;;;25.50;66.30;;;;;;5042690;28;20033;-78
2021/06/04 10:35:35;;;;;;;5.18;4.35;;;25.40;66.40;;;;;;5059418;28;20141;-80
2021/06/04 10:38:38;;;;;;;7.82;4.82;;;25.50;65.30;;;;;;5040494;28;20086;-77
2021/06/04 10:41:10;;;;;;;5.18;4.15;;;25.60;65.50;;;;;;5034316;28;20048;-79
2021/06/04 10:43:45;;;;;;;5.18;4.60;;;25.70;65.10;;;;;;5049472;28;20033;-83
2021/06/04 10:46:35;;;;;;;4.30;3.90;;;25.90;64.10;;;;;;5053688;28;20119;-79
2021/06/04 10:49:26;;;;;;;5.95;4.30;;;25.90;63.80;;;;;;5048846;28;20029;-78
2021/06/04 10:52:19;;;;;;;5.55;4.78;;;25.90;64.60;;;;;;5057129;28;20032;-79
2021/06/04 10:55:01;;;;;;;7.85;5.22;;;26.30;64.30;;;;;;5038369;28;20044;-80
2021/06/04 10:57:39;;;;;;;5.65;4.63;;;26.80;64.20;;;;;;5057582;28;20039;-78
2021/06/04 11:00:29;;;;;;;5.82;4.63;;;27.00;63.20;;;;;;5062677;28;20039;-80
2021/06/04 11:03:12;;;;;;;5.90;4.30;;;26.60;63.00;;;;;;5044083;28;20064;-79
2021/06/04 11:05:43;;;;;;;4.90;4.50;;;26.80;62.80;;;;;;5057560;28;20025;-78
2021/06/04 11:08:30;;;;;;;5.18;4.38;;;26.60;62.90;;;;;;5053405;28;20032;-79
2021/06/04 11:11:04;;;;;;;6.28;4.68;;;26.80;62.80;;;;;;5057750;28;20025;-78
2021/06/04 11:13:39;;;;;;;5.00;4.50;;;27.00;62.40;;;;;;5029045;28;20112;-78
2021/06/04 11:16:10;;;;;;;4.80;4.40;;;26.80;62.40;;;;;;5047031;28;20024;-78
2021/06/04 11:18:52;;;;;;;4.80;3.90;;;26.40;63.50;;;;;;5048459;28;20033;-81
2021/06/04 11:21:20;;;;;;;4.97;4.10;;;26.90;62.50;;;;;;5024387;28;20064;-81
2021/06/04 11:23:57;;;;;;;5.75;4.55;;;27.30;62.50;;;;;;5036073;28;20041;-79
2021/06/04 11:26:31;;;;;;;4.43;4.03;;;27.50;61.40;;;;;;5034413;28;20029;-79
2021/06/04 11:29:03;;;;;;;5.72;4.05;;;27.80;60.80;;;;;;5046306;28;20073;-77
2021/06/04 11:31:47;;;;;;;4.05;3.63;;;27.90;60.10;;;;;;5055208;28;20031;-78
2021/06/04 11:34:28;;;;;;;4.38;3.90;;;28.00;60.10;;;;;;5054437;28;20087;-77
2021/06/04 11:36:54;;;;;;;5.90;4.22;;;28.20;60.40;;;;;;5058927;28;20029;-79
2021/06/04 11:39:42;;;;;;;4.72;4.00;;;28.30;60.00;;;;;;5040832;28;20055;-79
2021/06/04 11:42:13;;;;;;;7.28;4.20;;;28.50;59.70;;;;;;5038807;28;20087;-77
2021/06/04 11:44:49;;;;;;;6.82;4.25;;;28.30;59.90;;;;;;5055439;28;20013;-78
2021/06/04 11:47:18;;;;;;;4.38;3.65;;;28.40;60.00;;;;;;5022484;28;20108;-77
2021/06/04 11:49:53;;;;;;;5.30;4.07;;;28.00;59.80;;;;;;5049180;28;20048;-77
2021/06/04 11:52:33;;;;;;;5.03;4.20;;;28.00;60.90;;;;;;5053441;28;20388;-77
2021/06/04 11:55:19;;;;;;;4.20;3.80;;;28.20;60.40;;;;;;5045053;28;20032;-78
2021/06/04 11:57:50;;;;;;;4.10;3.70;;;28.20;60.50;;;;;;5049964;28;20130;-78
2021/06/04 12:00:25;;;;;;;5.88;4.18;;;28.30;60.30;;;;;;5039653;28;20025;-78
2021/06/04 12:02:53;;;;;;;5.40;3.90;;;28.20;59.90;;;;;;5054711;28;20511;-76
2021/06/04 12:05:19;;;;;;;5.10;3.80;;;28.20;59.80;;;;;;5054880;28;20496;-81
2021/06/04 12:08:09;;;;;;;5.15;3.60;;;28.20;59.90;;;;;;5038002;28;20029;-78
2021/06/04 12:10:54;;;;;;;4.47;3.97;;;28.20;60.70;;;;;;5038279;28;20033;-78
2021/06/04 12:13:40;;;;;;;;;;;28.20;60.40;;;;;;5044482;28;20032;-78
2021/06/04 12:16:30;;;;;;;6.15;3.90;;;27.90;61.00;;;;;;5029231;28;19940;-81
2021/06/04 12:19:05;;;;;;;4.72;3.72;;;27.90;61.10;;;;;;5055212;28;20040;-80
2021/06/04 12:21:40;;;;;;;3.80;3.40;;;28.10;59.60;;;;;;5035919;28;20477;-77
2021/06/04 12:24:14;;;;;;;4.22;3.40;;;28.10;58.50;;;;;;5033975;28;20030;-77
2021/06/04 12:27:02;;;;;;;5.45;3.53;;;27.90;57.30;;;;;;5056709;28;20108;-80
2021/06/04 12:29:29;;;;;;;6.72;4.43;;;27.90;56.90;;;;;;5054749;28;20083;-78
2021/06/04 12:31:59;;;;;;;4.20;3.90;;;27.90;57.90;;;;;;5055525;28;20021;-78
2021/06/04 12:34:38;;;;;;;4.72;3.60;;;28.00;58.30;;;;;;5045551;28;20048;-79
2021/06/04 12:37:22;;;;;;;5.18;3.88;;;28.30;57.90;;;;;;5052216;28;20493;-78
2021/06/04 12:39:53;;;;;;;4.95;4.03;;;28.40;58.20;;;;;;5060113;28;20032;-79
2021/06/04 12:42:25;;;;;;;4.65;4.00;;;28.50;58.20;;;;;;5060460;28;20025;-78
2021/06/04 12:44:59;;;;;;;6.68;4.20;;;28.30;58.70;;;;;;5063091;28;20017;-78
2021/06/04 12:47:53;;;;;;;5.50;4.03;;;28.20;59.20;;;;;;5060349;28;20039;-78
2021/06/04 12:50:27;;;;;;;5.25;4.10;;;28.00;60.20;;;;;;5006124;28;20435;-78
2021/06/04 12:53:10;;;;;;;4.30;3.90;;;27.80;60.30;;;;;;5040507;28;20053;-79
2021/06/04 12:55:37;;;;;;;5.72;4.22;;;27.60;61.10;;;;;;5047426;28;20037;-78
2021/06/04 12:58:26;;;;;;;6.05;3.95;;;27.40;61.80;;;;;;5065823;28;20060;-80
2021/06/04 13:01:02;;;;;;;4.78;4.07;;;27.30;61.50;;;;;;5049875;28;20108;-79
2021/06/04 13:03:34;;;;;;;4.95;4.07;;;27.30;61.10;;;;;;5032231;28;20064;-78
2021/06/04 13:06:01;;;;;;;5.15;4.32;;;27.40;61.20;;;;;;5028850;28;20041;-79
2021/06/04 13:08:35;;;;;;;5.85;3.88;;;27.50;61.10;;;;;;5042019;28;20056;-78
2021/06/04 13:11:04;;;;;;;4.38;3.92;;;27.70;61.00;;;;;;5062078;28;20043;-79
2021/06/04 13:13:42;;;;;;;4.95;4.40;;;27.80;60.90;;;;;;5050647;28;20436;-77